sensor_id;sensor_type;location;lat;lon;timestamp;P1;durP1;ratioP1;P2;durP2;ratioP2
3259;SDS011;68938;48.150;14.004;2023-09-30T00:02:22;10.93;;;9.50;;
3259;SDS011;68938;48.150;14.004;2023-09-30T00:04:49;18.43;;;10.20;;
3259;SDS011;68938;48.150;14.004;2023-09-30T00:07:16;11.00;;;9.77;;
3259;SDS011;68938;48.150;14.004;2023-09-30T00:09:43;9.07;;;8.27;;
3259;SDS011;68938;48.150;14.004;2023-09-30T00:12:10;10.67;;;8.63;;
3259;SDS011;68938;48.150;14.004;2023-09-30T00:14:37;9.07;;;8.17;;
3259;SDS011;68938;48.150;14.004;2023-09-30T00:17:04;9.80;;;8.60;;
3259;SDS011;68938;48.150;14.004;2023-09-30T00:19:31;10.43;;;7.57;;
3259;SDS011;68938;48.150;14.004;2023-09-30T00:21:58;8.77;;;8.07;;
3259;SDS011;68938;48.150;14.004;2023-09-30T00:24:25;7.37;;;6.87;;
3259;SDS011;68938;48.150;14.004;2023-09-30T00:26:53;7.63;;;7.00;;
3259;SDS011;68938;48.150;14.004;2023-09-30T00:29:20;11.90;;;8.03;;
3259;SDS011;68938;48.150;14.004;2023-09-30T00:31:47;7.73;;;7.10;;
3259;SDS011;68938;48.150;14.004;2023-09-30T00:34:14;8.80;;;7.97;;
3259;SDS011;68938;48.150;14.004;2023-09-30T00:36:41;7.20;;;6.50;;
3259;SDS011;68938;48.150;14.004;2023-09-30T00:39:08;7.10;;;6.40;;
3259;SDS011;68938;48.150;14.004;2023-09-30T00:41:35;7.93;;;7.23;;
3259;SDS011;68938;48.150;14.004;2023-09-30T00:44:05;10.17;;;7.70;;
3259;SDS011;68938;48.150;14.004;2023-09-30T00:46:32;9.80;;;8.77;;
3259;SDS011;68938;48.150;14.004;2023-09-30T00:49:06;12.00;;;8.50;;
3259;SDS011;68938;48.150;14.004;2023-09-30T00:51:33;9.37;;;7.77;;
3259;SDS011;68938;48.150;14.004;2023-09-30T00:54:01;8.53;;;7.83;;
3259;SDS011;68938;48.150;14.004;2023-09-30T00:56:30;9.63;;;7.83;;
3259;SDS011;68938;48.150;14.004;2023-09-30T00:58:57;11.27;;;8.53;;
3259;SDS011;68938;48.150;14.004;2023-09-30T01:01:25;9.57;;;8.17;;
3259;SDS011;68938;48.150;14.004;2023-09-30T01:03:53;13.03;;;9.27;;
3259;SDS011;68938;48.150;14.004;2023-09-30T01:06:20;11.03;;;9.97;;
3259;SDS011;68938;48.150;14.004;2023-09-30T01:08:47;13.20;;;10.70;;
3259;SDS011;68938;48.150;14.004;2023-09-30T01:11:14;18.63;;;10.60;;
3259;SDS011;68938;48.150;14.004;2023-09-30T01:13:42;20.03;;;12.67;;
3259;SDS011;68938;48.150;14.004;2023-09-30T01:16:10;18.00;;;11.23;;
3259;SDS011;68938;48.150;14.004;2023-09-30T01:18:39;19.63;;;11.97;;
3259;SDS011;68938;48.150;14.004;2023-09-30T01:21:07;20.70;;;12.33;;
3259;SDS011;68938;48.150;14.004;2023-09-30T01:23:34;16.07;;;11.10;;
3259;SDS011;68938;48.150;14.004;2023-09-30T01:26:02;15.80;;;11.70;;
3259;SDS011;68938;48.150;14.004;2023-09-30T01:28:31;14.40;;;10.90;;
3259;SDS011;68938;48.150;14.004;2023-09-30T01:30:58;15.23;;;11.20;;
3259;SDS011;68938;48.150;14.004;2023-09-30T01:33:25;18.27;;;11.77;;
3259;SDS011;68938;48.150;14.004;2023-09-30T01:35:53;16.90;;;11.00;;
3259;SDS011;68938;48.150;14.004;2023-09-30T01:38:20;14.20;;;10.40;;
3259;SDS011;68938;48.150;14.004;2023-09-30T01:40:47;24.73;;;12.53;;
3259;SDS011;68938;48.150;14.004;2023-09-30T01:43:14;15.67;;;10.97;;
3259;SDS011;68938;48.150;14.004;2023-09-30T01:45:42;16.13;;;10.30;;
3259;SDS011;68938;48.150;14.004;2023-09-30T01:48:10;18.20;;;11.10;;
3259;SDS011;68938;48.150;14.004;2023-09-30T01:50:40;15.37;;;12.07;;
3259;SDS011;68938;48.150;14.004;2023-09-30T01:53:07;17.27;;;11.50;;
3259;SDS011;68938;48.150;14.004;2023-09-30T01:55:35;28.00;;;12.47;;
3259;SDS011;68938;48.150;14.004;2023-09-30T01:58:03;20.13;;;11.90;;
3259;SDS011;68938;48.150;14.004;2023-09-30T02:00:30;18.10;;;12.30;;
3259;SDS011;68938;48.150;14.004;2023-09-30T02:02:57;18.30;;;12.03;;
3259;SDS011;68938;48.150;14.004;2023-09-30T02:05:25;17.30;;;11.40;;
3259;SDS011;68938;48.150;14.004;2023-09-30T02:07:52;25.13;;;13.50;;
3259;SDS011;68938;48.150;14.004;2023-09-30T02:10:19;21.10;;;12.73;;
3259;SDS011;68938;48.150;14.004;2023-09-30T02:12:46;22.53;;;13.20;;
3259;SDS011;68938;48.150;14.004;2023-09-30T02:15:14;24.43;;;13.20;;
3259;SDS011;68938;48.150;14.004;2023-09-30T02:17:42;23.50;;;12.40;;
3259;SDS011;68938;48.150;14.004;2023-09-30T02:20:09;22.07;;;12.77;;
3259;SDS011;68938;48.150;14.004;2023-09-30T02:22:36;20.90;;;12.00;;
3259;SDS011;68938;48.150;14.004;2023-09-30T02:25:03;20.97;;;12.97;;
3259;SDS011;68938;48.150;14.004;2023-09-30T02:27:31;21.60;;;12.30;;
3259;SDS011;68938;48.150;14.004;2023-09-30T02:29:58;22.30;;;13.50;;
3259;SDS011;68938;48.150;14.004;2023-09-30T02:32:25;23.70;;;13.53;;
3259;SDS011;68938;48.150;14.004;2023-09-30T02:34:52;25.00;;;12.70;;
3259;SDS011;68938;48.150;14.004;2023-09-30T02:37:19;22.77;;;12.37;;
3259;SDS011;68938;48.150;14.004;2023-09-30T02:39:46;20.97;;;11.80;;
3259;SDS011;68938;48.150;14.004;2023-09-30T02:42:13;24.23;;;12.67;;
3259;SDS011;68938;48.150;14.004;2023-09-30T02:44:40;26.97;;;12.70;;
3259;SDS011;68938;48.150;14.004;2023-09-30T02:47:07;22.37;;;11.70;;
3259;SDS011;68938;48.150;14.004;2023-09-30T02:49:34;19.20;;;11.30;;
3259;SDS011;68938;48.150;14.004;2023-09-30T02:52:02;21.37;;;11.53;;
3259;SDS011;68938;48.150;14.004;2023-09-30T02:54:30;20.40;;;11.40;;
3259;SDS011;68938;48.150;14.004;2023-09-30T02:56:58;22.60;;;11.93;;
3259;SDS011;68938;48.150;14.004;2023-09-30T02:59:25;22.17;;;11.80;;
3259;SDS011;68938;48.150;14.004;2023-09-30T03:01:52;23.50;;;12.10;;
3259;SDS011;68938;48.150;14.004;2023-09-30T03:04:19;19.57;;;11.47;;
3259;SDS011;68938;48.150;14.004;2023-09-30T03:06:47;24.53;;;11.90;;
3259;SDS011;68938;48.150;14.004;2023-09-30T03:09:14;21.30;;;10.93;;
3259;SDS011;68938;48.150;14.004;2023-09-30T03:11:41;20.03;;;10.63;;
3259;SDS011;68938;48.150;14.004;2023-09-30T03:14:09;23.40;;;11.70;;
3259;SDS011;68938;48.150;14.004;2023-09-30T03:16:36;20.77;;;11.70;;
3259;SDS011;68938;48.150;14.004;2023-09-30T03:19:04;15.47;;;10.20;;
3259;SDS011;68938;48.150;14.004;2023-09-30T03:21:31;18.20;;;11.07;;
3259;SDS011;68938;48.150;14.004;2023-09-30T03:23:58;18.83;;;10.67;;
3259;SDS011;68938;48.150;14.004;2023-09-30T03:26:25;21.20;;;11.73;;
3259;SDS011;68938;48.150;14.004;2023-09-30T03:28:55;22.73;;;12.50;;
3259;SDS011;68938;48.150;14.004;2023-09-30T03:31:22;19.67;;;10.83;;
3259;SDS011;68938;48.150;14.004;2023-09-30T03:33:50;25.30;;;13.50;;
3259;SDS011;68938;48.150;14.004;2023-09-30T03:36:17;22.93;;;12.60;;
3259;SDS011;68938;48.150;14.004;2023-09-30T03:38:45;26.20;;;14.70;;
3259;SDS011;68938;48.150;14.004;2023-09-30T03:41:12;22.80;;;13.83;;
3259;SDS011;68938;48.150;14.004;2023-09-30T03:43:39;27.27;;;14.93;;
3259;SDS011;68938;48.150;14.004;2023-09-30T03:46:07;24.10;;;14.37;;
3259;SDS011;68938;48.150;14.004;2023-09-30T03:48:35;22.30;;;14.70;;
3259;SDS011;68938;48.150;14.004;2023-09-30T03:51:12;20.67;;;13.10;;
3259;SDS011;68938;48.150;14.004;2023-09-30T03:53:44;24.20;;;12.57;;
3259;SDS011;68938;48.150;14.004;2023-09-30T03:56:12;18.37;;;11.80;;
3259;SDS011;68938;48.150;14.004;2023-09-30T03:58:39;20.83;;;12.10;;
3259;SDS011;68938;48.150;14.004;2023-09-30T04:01:10;20.53;;;12.27;;
3259;SDS011;68938;48.150;14.004;2023-09-30T04:03:38;23.47;;;11.10;;
3259;SDS011;68938;48.150;14.004;2023-09-30T04:06:06;23.53;;;13.30;;
3259;SDS011;68938;48.150;14.004;2023-09-30T04:08:33;20.43;;;11.93;;
3259;SDS011;68938;48.150;14.004;2023-09-30T04:11:00;23.90;;;12.07;;
3259;SDS011;68938;48.150;14.004;2023-09-30T04:13:31;20.13;;;11.43;;
3259;SDS011;68938;48.150;14.004;2023-09-30T04:15:58;22.13;;;12.37;;
3259;SDS011;68938;48.150;14.004;2023-09-30T04:18:25;23.77;;;13.10;;
3259;SDS011;68938;48.150;14.004;2023-09-30T04:20:52;24.80;;;13.77;;
3259;SDS011;68938;48.150;14.004;2023-09-30T04:23:20;20.93;;;11.73;;
3259;SDS011;68938;48.150;14.004;2023-09-30T04:25:47;19.57;;;11.87;;
3259;SDS011;68938;48.150;14.004;2023-09-30T04:28:15;25.30;;;13.63;;
3259;SDS011;68938;48.150;14.004;2023-09-30T04:30:42;24.83;;;12.00;;
3259;SDS011;68938;48.150;14.004;2023-09-30T04:33:09;20.83;;;12.33;;
3259;SDS011;68938;48.150;14.004;2023-09-30T04:35:36;18.40;;;11.23;;
3259;SDS011;68938;48.150;14.004;2023-09-30T04:38:03;22.90;;;11.97;;
3259;SDS011;68938;48.150;14.004;2023-09-30T04:40:31;23.27;;;12.97;;
3259;SDS011;68938;48.150;14.004;2023-09-30T04:42:58;19.27;;;12.07;;
3259;SDS011;68938;48.150;14.004;2023-09-30T04:45:25;20.17;;;10.43;;
3259;SDS011;68938;48.150;14.004;2023-09-30T04:47:53;23.77;;;12.17;;
3259;SDS011;68938;48.150;14.004;2023-09-30T04:50:21;25.47;;;13.43;;
3259;SDS011;68938;48.150;14.004;2023-09-30T04:52:52;27.70;;;13.10;;
3259;SDS011;68938;48.150;14.004;2023-09-30T04:55:20;22.87;;;12.47;;
3259;SDS011;68938;48.150;14.004;2023-09-30T04:57:47;23.60;;;12.20;;
3259;SDS011;68938;48.150;14.004;2023-09-30T05:00:15;25.50;;;12.00;;
3259;SDS011;68938;48.150;14.004;2023-09-30T05:02:45;23.40;;;12.67;;
3259;SDS011;68938;48.150;14.004;2023-09-30T05:05:13;22.93;;;10.77;;
3259;SDS011;68938;48.150;14.004;2023-09-30T05:07:40;23.70;;;14.00;;
3259;SDS011;68938;48.150;14.004;2023-09-30T05:10:08;22.53;;;12.20;;
3259;SDS011;68938;48.150;14.004;2023-09-30T05:12:36;22.57;;;11.47;;
3259;SDS011;68938;48.150;14.004;2023-09-30T05:15:04;20.70;;;11.87;;
3259;SDS011;68938;48.150;14.004;2023-09-30T05:17:32;27.57;;;13.53;;
3259;SDS011;68938;48.150;14.004;2023-09-30T05:19:59;24.50;;;12.17;;
3259;SDS011;68938;48.150;14.004;2023-09-30T05:22:26;21.90;;;11.37;;
3259;SDS011;68938;48.150;14.004;2023-09-30T05:24:53;22.93;;;12.23;;
3259;SDS011;68938;48.150;14.004;2023-09-30T05:27:20;23.80;;;12.47;;
3259;SDS011;68938;48.150;14.004;2023-09-30T05:29:47;23.20;;;12.77;;
3259;SDS011;68938;48.150;14.004;2023-09-30T05:32:14;19.37;;;10.57;;
3259;SDS011;68938;48.150;14.004;2023-09-30T05:34:41;21.07;;;11.23;;
3259;SDS011;68938;48.150;14.004;2023-09-30T05:37:08;19.90;;;10.83;;
3259;SDS011;68938;48.150;14.004;2023-09-30T05:39:35;17.90;;;11.00;;
3259;SDS011;68938;48.150;14.004;2023-09-30T05:42:02;16.80;;;9.70;;
3259;SDS011;68938;48.150;14.004;2023-09-30T05:44:29;18.23;;;10.07;;
3259;SDS011;68938;48.150;14.004;2023-09-30T05:46:56;17.10;;;9.60;;
3259;SDS011;68938;48.150;14.004;2023-09-30T05:49:23;23.63;;;11.43;;
3259;SDS011;68938;48.150;14.004;2023-09-30T05:51:50;21.47;;;11.10;;
3259;SDS011;68938;48.150;14.004;2023-09-30T05:54:18;18.63;;;10.77;;
3259;SDS011;68938;48.150;14.004;2023-09-30T05:56:45;14.30;;;9.43;;
3259;SDS011;68938;48.150;14.004;2023-09-30T05:59:12;17.00;;;8.43;;
3259;SDS011;68938;48.150;14.004;2023-09-30T06:01:39;13.30;;;8.37;;
3259;SDS011;68938;48.150;14.004;2023-09-30T06:04:06;19.60;;;9.40;;
3259;SDS011;68938;48.150;14.004;2023-09-30T06:06:33;15.07;;;8.13;;
3259;SDS011;68938;48.150;14.004;2023-09-30T06:09:00;13.57;;;7.90;;
3259;SDS011;68938;48.150;14.004;2023-09-30T06:11:28;15.40;;;9.00;;
3259;SDS011;68938;48.150;14.004;2023-09-30T06:13:55;14.57;;;9.00;;
3259;SDS011;68938;48.150;14.004;2023-09-30T06:16:23;17.00;;;7.43;;
3259;SDS011;68938;48.150;14.004;2023-09-30T06:18:50;13.70;;;8.23;;
3259;SDS011;68938;48.150;14.004;2023-09-30T06:21:17;14.10;;;8.00;;
3259;SDS011;68938;48.150;14.004;2023-09-30T06:23:44;15.07;;;7.97;;
3259;SDS011;68938;48.150;14.004;2023-09-30T06:26:11;18.90;;;9.10;;
3259;SDS011;68938;48.150;14.004;2023-09-30T06:28:39;17.03;;;8.00;;
3259;SDS011;68938;48.150;14.004;2023-09-30T06:31:07;13.70;;;7.93;;
3259;SDS011;68938;48.150;14.004;2023-09-30T06:33:35;16.97;;;7.97;;
3259;SDS011;68938;48.150;14.004;2023-09-30T06:36:13;13.50;;;7.80;;
3259;SDS011;68938;48.150;14.004;2023-09-30T06:38:40;14.57;;;7.60;;
3259;SDS011;68938;48.150;14.004;2023-09-30T06:41:08;12.67;;;8.67;;
3259;SDS011;68938;48.150;14.004;2023-09-30T06:43:35;12.17;;;8.03;;
3259;SDS011;68938;48.150;14.004;2023-09-30T06:46:08;16.90;;;8.83;;
3259;SDS011;68938;48.150;14.004;2023-09-30T06:48:37;14.23;;;8.40;;
3259;SDS011;68938;48.150;14.004;2023-09-30T06:51:04;16.20;;;9.27;;
3259;SDS011;68938;48.150;14.004;2023-09-30T06:53:31;17.27;;;9.43;;
3259;SDS011;68938;48.150;14.004;2023-09-30T06:55:58;14.10;;;8.93;;
3259;SDS011;68938;48.150;14.004;2023-09-30T06:58:25;16.47;;;9.07;;
3259;SDS011;68938;48.150;14.004;2023-09-30T07:00:52;18.00;;;10.67;;
3259;SDS011;68938;48.150;14.004;2023-09-30T07:03:20;18.07;;;8.47;;
3259;SDS011;68938;48.150;14.004;2023-09-30T07:05:52;12.87;;;8.20;;
3259;SDS011;68938;48.150;14.004;2023-09-30T07:08:19;14.40;;;9.03;;
3259;SDS011;68938;48.150;14.004;2023-09-30T07:10:47;14.87;;;8.37;;
3259;SDS011;68938;48.150;14.004;2023-09-30T07:13:14;18.10;;;10.23;;
3259;SDS011;68938;48.150;14.004;2023-09-30T07:15:43;17.40;;;9.97;;
3259;SDS011;68938;48.150;14.004;2023-09-30T07:18:10;14.23;;;8.80;;
3259;SDS011;68938;48.150;14.004;2023-09-30T07:20:37;13.50;;;8.43;;
3259;SDS011;68938;48.150;14.004;2023-09-30T07:23:04;15.90;;;8.20;;
3259;SDS011;68938;48.150;14.004;2023-09-30T07:25:45;20.53;;;9.70;;
3259;SDS011;68938;48.150;14.004;2023-09-30T07:28:12;17.67;;;9.13;;
3259;SDS011;68938;48.150;14.004;2023-09-30T07:30:39;14.13;;;8.90;;
3259;SDS011;68938;48.150;14.004;2023-09-30T07:33:07;16.00;;;9.13;;
3259;SDS011;68938;48.150;14.004;2023-09-30T07:35:34;13.50;;;7.60;;
3259;SDS011;68938;48.150;14.004;2023-09-30T07:38:02;22.50;;;10.03;;
3259;SDS011;68938;48.150;14.004;2023-09-30T07:40:30;15.50;;;7.93;;
3259;SDS011;68938;48.150;14.004;2023-09-30T07:42:57;14.23;;;7.97;;
3259;SDS011;68938;48.150;14.004;2023-09-30T07:45:24;16.83;;;9.27;;
3259;SDS011;68938;48.150;14.004;2023-09-30T07:47:51;14.30;;;8.00;;
3259;SDS011;68938;48.150;14.004;2023-09-30T07:50:18;13.03;;;8.27;;
3259;SDS011;68938;48.150;14.004;2023-09-30T07:52:45;15.80;;;7.23;;
3259;SDS011;68938;48.150;14.004;2023-09-30T07:55:13;14.57;;;7.70;;
3259;SDS011;68938;48.150;14.004;2023-09-30T07:57:41;16.63;;;7.80;;
3259;SDS011;68938;48.150;14.004;2023-09-30T08:00:09;14.90;;;7.50;;
3259;SDS011;68938;48.150;14.004;2023-09-30T08:02:38;14.63;;;7.90;;
3259;SDS011;68938;48.150;14.004;2023-09-30T08:05:05;13.63;;;7.70;;
3259;SDS011;68938;48.150;14.004;2023-09-30T08:07:33;11.13;;;6.67;;
3259;SDS011;68938;48.150;14.004;2023-09-30T08:10:01;13.83;;;7.10;;
3259;SDS011;68938;48.150;14.004;2023-09-30T08:12:31;12.53;;;6.77;;
3259;SDS011;68938;48.150;14.004;2023-09-30T08:14:58;9.70;;;5.90;;
3259;SDS011;68938;48.150;14.004;2023-09-30T08:17:25;12.67;;;7.47;;
3259;SDS011;68938;48.150;14.004;2023-09-30T08:19:52;16.03;;;7.00;;
3259;SDS011;68938;48.150;14.004;2023-09-30T08:22:19;11.07;;;7.13;;
3259;SDS011;68938;48.150;14.004;2023-09-30T08:24:46;12.70;;;7.07;;
3259;SDS011;68938;48.150;14.004;2023-09-30T08:27:13;11.37;;;6.30;;
3259;SDS011;68938;48.150;14.004;2023-09-30T08:29:40;10.53;;;6.37;;
3259;SDS011;68938;48.150;14.004;2023-09-30T08:32:07;13.23;;;6.83;;
3259;SDS011;68938;48.150;14.004;2023-09-30T08:34:34;12.23;;;6.30;;
3259;SDS011;68938;48.150;14.004;2023-09-30T08:37:01;10.83;;;6.80;;
3259;SDS011;68938;48.150;14.004;2023-09-30T08:39:28;12.53;;;6.90;;
3259;SDS011;68938;48.150;14.004;2023-09-30T08:41:55;10.53;;;6.43;;
3259;SDS011;68938;48.150;14.004;2023-09-30T08:44:23;10.50;;;6.50;;
3259;SDS011;68938;48.150;14.004;2023-09-30T08:46:50;9.87;;;5.90;;
3259;SDS011;68938;48.150;14.004;2023-09-30T08:49:17;10.50;;;5.47;;
3259;SDS011;68938;48.150;14.004;2023-09-30T08:51:45;10.73;;;6.47;;
3259;SDS011;68938;48.150;14.004;2023-09-30T08:54:15;14.23;;;6.17;;
3259;SDS011;68938;48.150;14.004;2023-09-30T08:56:42;10.80;;;6.37;;
3259;SDS011;68938;48.150;14.004;2023-09-30T08:59:14;14.80;;;6.40;;
3259;SDS011;68938;48.150;14.004;2023-09-30T09:01:42;11.30;;;7.03;;
3259;SDS011;68938;48.150;14.004;2023-09-30T09:04:09;10.87;;;5.73;;
3259;SDS011;68938;48.150;14.004;2023-09-30T09:06:37;9.20;;;5.33;;
3259;SDS011;68938;48.150;14.004;2023-09-30T09:09:14;9.53;;;5.87;;
3259;SDS011;68938;48.150;14.004;2023-09-30T09:11:43;10.77;;;5.87;;
3259;SDS011;68938;48.150;14.004;2023-09-30T09:14:11;11.20;;;6.60;;
3259;SDS011;68938;48.150;14.004;2023-09-30T09:16:51;11.90;;;6.57;;
3259;SDS011;68938;48.150;14.004;2023-09-30T09:19:22;12.87;;;6.27;;
3259;SDS011;68938;48.150;14.004;2023-09-30T09:21:53;14.90;;;7.23;;
3259;SDS011;68938;48.150;14.004;2023-09-30T09:24:35;14.60;;;7.20;;
3259;SDS011;68938;48.150;14.004;2023-09-30T09:27:05;10.73;;;5.77;;
3259;SDS011;68938;48.150;14.004;2023-09-30T09:29:39;10.70;;;6.57;;
3259;SDS011;68938;48.150;14.004;2023-09-30T09:32:07;8.33;;;5.33;;
3259;SDS011;68938;48.150;14.004;2023-09-30T09:34:40;10.67;;;6.37;;
3259;SDS011;68938;48.150;14.004;2023-09-30T09:37:16;13.23;;;7.17;;
3259;SDS011;68938;48.150;14.004;2023-09-30T09:39:55;11.53;;;7.03;;
3259;SDS011;68938;48.150;14.004;2023-09-30T09:42:27;11.57;;;6.63;;
3259;SDS011;68938;48.150;14.004;2023-09-30T09:45:03;13.50;;;7.53;;
3259;SDS011;68938;48.150;14.004;2023-09-30T09:47:32;12.00;;;7.60;;
3259;SDS011;68938;48.150;14.004;2023-09-30T09:50:02;12.43;;;7.03;;
3259;SDS011;68938;48.150;14.004;2023-09-30T09:52:30;12.70;;;7.00;;
3259;SDS011;68938;48.150;14.004;2023-09-30T09:55:01;12.57;;;7.50;;
3259;SDS011;68938;48.150;14.004;2023-09-30T09:57:30;11.30;;;6.90;;
3259;SDS011;68938;48.150;14.004;2023-09-30T10:00:03;13.33;;;7.33;;
3259;SDS011;68938;48.150;14.004;2023-09-30T10:02:39;14.37;;;7.77;;
3259;SDS011;68938;48.150;14.004;2023-09-30T10:08:08;14.07;;;7.53;;
3259;SDS011;68938;48.150;14.004;2023-09-30T10:10:41;15.20;;;7.93;;
3259;SDS011;68938;48.150;14.004;2023-09-30T10:19:10;16.97;;;9.37;;
3259;SDS011;68938;48.150;14.004;2023-09-30T10:24:43;16.20;;;9.50;;
3259;SDS011;68938;48.150;14.004;2023-09-30T10:29:58;23.30;;;10.50;;
3259;SDS011;68938;48.150;14.004;2023-09-30T10:38:38;21.33;;;12.40;;
3259;SDS011;68938;48.150;14.004;2023-09-30T10:40:49;25.20;;;13.53;;
3259;SDS011;68938;48.150;14.004;2023-09-30T10:43:29;21.20;;;12.50;;
3259;SDS011;68938;48.150;14.004;2023-09-30T10:48:52;25.27;;;13.13;;
3259;SDS011;68938;48.150;14.004;2023-09-30T10:51:23;25.23;;;12.80;;
3259;SDS011;68938;48.150;14.004;2023-09-30T10:57:01;23.67;;;12.73;;
3259;SDS011;68938;48.150;14.004;2023-09-30T10:59:29;22.30;;;12.43;;
3259;SDS011;68938;48.150;14.004;2023-09-30T11:01:57;21.63;;;12.40;;
3259;SDS011;68938;48.150;14.004;2023-09-30T11:04:25;24.10;;;12.70;;
3259;SDS011;68938;48.150;14.004;2023-09-30T11:10:06;23.27;;;13.30;;
3259;SDS011;68938;48.150;14.004;2023-09-30T11:12:55;21.23;;;12.90;;
3259;SDS011;68938;48.150;14.004;2023-09-30T11:15:24;22.07;;;11.87;;
3259;SDS011;68938;48.150;14.004;2023-09-30T11:17:54;28.07;;;15.30;;
3259;SDS011;68938;48.150;14.004;2023-09-30T11:20:47;25.00;;;14.20;;
3259;SDS011;68938;48.150;14.004;2023-09-30T11:23:40;37.63;;;17.47;;
3259;SDS011;68938;48.150;14.004;2023-09-30T11:26:10;31.93;;;15.97;;
3259;SDS011;68938;48.150;14.004;2023-09-30T11:28:41;36.53;;;17.60;;
3259;SDS011;68938;48.150;14.004;2023-09-30T11:31:12;32.27;;;17.80;;
3259;SDS011;68938;48.150;14.004;2023-09-30T11:33:49;30.77;;;17.17;;
3259;SDS011;68938;48.150;14.004;2023-09-30T11:39:22;28.97;;;15.73;;
3259;SDS011;68938;48.150;14.004;2023-09-30T11:41:57;33.67;;;16.90;;
3259;SDS011;68938;48.150;14.004;2023-09-30T11:44:25;34.33;;;16.70;;
3259;SDS011;68938;48.150;14.004;2023-09-30T11:51:56;34.43;;;17.40;;
3259;SDS011;68938;48.150;14.004;2023-09-30T11:54:34;29.80;;;16.40;;
3259;SDS011;68938;48.150;14.004;2023-09-30T11:57:10;30.87;;;16.67;;
3259;SDS011;68938;48.150;14.004;2023-09-30T11:59:48;31.33;;;16.47;;
3259;SDS011;68938;48.150;14.004;2023-09-30T12:02:15;35.43;;;17.10;;
3259;SDS011;68938;48.150;14.004;2023-09-30T12:04:46;30.20;;;15.53;;
3259;SDS011;68938;48.150;14.004;2023-09-30T12:07:17;32.57;;;17.30;;
3259;SDS011;68938;48.150;14.004;2023-09-30T12:09:44;30.10;;;16.50;;
3259;SDS011;68938;48.150;14.004;2023-09-30T12:12:20;30.00;;;15.77;;
3259;SDS011;68938;48.150;14.004;2023-09-30T12:14:47;29.67;;;16.70;;
3259;SDS011;68938;48.150;14.004;2023-09-30T12:17:23;32.30;;;17.00;;
3259;SDS011;68938;48.150;14.004;2023-09-30T12:20:05;31.70;;;17.30;;
3259;SDS011;68938;48.150;14.004;2023-09-30T12:22:33;26.47;;;14.40;;
3259;SDS011;68938;48.150;14.004;2023-09-30T12:25:04;25.93;;;14.43;;
3259;SDS011;68938;48.150;14.004;2023-09-30T12:27:57;29.50;;;15.00;;
3259;SDS011;68938;48.150;14.004;2023-09-30T12:30:51;25.20;;;14.20;;
3259;SDS011;68938;48.150;14.004;2023-09-30T12:33:18;26.10;;;13.07;;
3259;SDS011;68938;48.150;14.004;2023-09-30T12:35:45;28.60;;;14.20;;
3259;SDS011;68938;48.150;14.004;2023-09-30T12:38:22;28.00;;;15.53;;
3259;SDS011;68938;48.150;14.004;2023-09-30T12:40:49;28.57;;;14.87;;
3259;SDS011;68938;48.150;14.004;2023-09-30T12:43:19;29.97;;;14.43;;
3259;SDS011;68938;48.150;14.004;2023-09-30T12:45:50;28.70;;;14.10;;
3259;SDS011;68938;48.150;14.004;2023-09-30T12:48:23;24.23;;;13.20;;
3259;SDS011;68938;48.150;14.004;2023-09-30T12:50:50;22.10;;;14.30;;
3259;SDS011;68938;48.150;14.004;2023-09-30T12:53:21;24.27;;;14.10;;
3259;SDS011;68938;48.150;14.004;2023-09-30T12:55:50;21.50;;;12.93;;
3259;SDS011;68938;48.150;14.004;2023-09-30T12:58:35;23.87;;;13.80;;
3259;SDS011;68938;48.150;14.004;2023-09-30T13:01:02;23.00;;;12.30;;
3259;SDS011;68938;48.150;14.004;2023-09-30T13:03:47;21.93;;;12.10;;
3259;SDS011;68938;48.150;14.004;2023-09-30T13:06:15;22.53;;;12.97;;
3259;SDS011;68938;48.150;14.004;2023-09-30T13:08:43;21.60;;;12.50;;
3259;SDS011;68938;48.150;14.004;2023-09-30T13:11:10;21.90;;;12.93;;
3259;SDS011;68938;48.150;14.004;2023-09-30T13:13:37;25.57;;;12.10;;
3259;SDS011;68938;48.150;14.004;2023-09-30T13:16:04;20.93;;;11.43;;
3259;SDS011;68938;48.150;14.004;2023-09-30T13:18:31;18.83;;;11.60;;
3259;SDS011;68938;48.150;14.004;2023-09-30T13:20:59;18.23;;;10.40;;
3259;SDS011;68938;48.150;14.004;2023-09-30T13:23:27;23.17;;;13.07;;
3259;SDS011;68938;48.150;14.004;2023-09-30T13:25:55;22.20;;;11.70;;
3259;SDS011;68938;48.150;14.004;2023-09-30T13:28:22;20.90;;;12.37;;
3259;SDS011;68938;48.150;14.004;2023-09-30T13:30:49;18.60;;;10.10;;
3259;SDS011;68938;48.150;14.004;2023-09-30T13:33:16;18.67;;;10.53;;
3259;SDS011;68938;48.150;14.004;2023-09-30T13:35:45;15.30;;;9.43;;
3259;SDS011;68938;48.150;14.004;2023-09-30T13:38:12;16.13;;;9.43;;
3259;SDS011;68938;48.150;14.004;2023-09-30T13:40:39;13.87;;;8.40;;
3259;SDS011;68938;48.150;14.004;2023-09-30T13:43:06;18.80;;;11.27;;
3259;SDS011;68938;48.150;14.004;2023-09-30T13:45:33;14.23;;;8.90;;
3259;SDS011;68938;48.150;14.004;2023-09-30T13:48:00;18.30;;;9.33;;
3259;SDS011;68938;48.150;14.004;2023-09-30T13:50:33;15.13;;;8.93;;
3259;SDS011;68938;48.150;14.004;2023-09-30T13:54:34;17.70;;;8.50;;
3259;SDS011;68938;48.150;14.004;2023-09-30T14:16:02;11.77;;;7.30;;
3259;SDS011;68938;48.150;14.004;2023-09-30T14:18:30;12.87;;;8.80;;
3259;SDS011;68938;48.150;14.004;2023-09-30T14:21:00;14.07;;;7.83;;
3259;SDS011;68938;48.150;14.004;2023-09-30T14:23:27;11.33;;;7.23;;
3259;SDS011;68938;48.150;14.004;2023-09-30T14:25:54;13.73;;;7.07;;
3259;SDS011;68938;48.150;14.004;2023-09-30T14:28:28;12.03;;;6.83;;
3259;SDS011;68938;48.150;14.004;2023-09-30T14:30:57;14.07;;;7.80;;
3259;SDS011;68938;48.150;14.004;2023-09-30T14:33:27;12.63;;;7.73;;
3259;SDS011;68938;48.150;14.004;2023-09-30T14:36:00;11.00;;;6.60;;
3259;SDS011;68938;48.150;14.004;2023-09-30T14:38:27;8.60;;;6.47;;
3259;SDS011;68938;48.150;14.004;2023-09-30T14:40:58;13.80;;;7.40;;
3259;SDS011;68938;48.150;14.004;2023-09-30T14:43:36;11.13;;;7.43;;
3259;SDS011;68938;48.150;14.004;2023-09-30T14:46:03;11.90;;;8.33;;
3259;SDS011;68938;48.150;14.004;2023-09-30T14:48:31;12.50;;;8.13;;
3259;SDS011;68938;48.150;14.004;2023-09-30T14:50:58;12.10;;;7.90;;
3259;SDS011;68938;48.150;14.004;2023-09-30T14:53:26;11.13;;;7.20;;
3259;SDS011;68938;48.150;14.004;2023-09-30T14:55:55;13.17;;;7.97;;
3259;SDS011;68938;48.150;14.004;2023-09-30T14:58:26;10.50;;;6.83;;
3259;SDS011;68938;48.150;14.004;2023-09-30T15:00:56;11.80;;;7.27;;
3259;SDS011;68938;48.150;14.004;2023-09-30T15:03:23;11.73;;;6.87;;
3259;SDS011;68938;48.150;14.004;2023-09-30T15:05:59;12.10;;;7.93;;
3259;SDS011;68938;48.150;14.004;2023-09-30T15:08:27;11.97;;;6.60;;
3259;SDS011;68938;48.150;14.004;2023-09-30T15:10:55;10.10;;;6.60;;
3259;SDS011;68938;48.150;14.004;2023-09-30T15:13:22;15.13;;;7.13;;
3259;SDS011;68938;48.150;14.004;2023-09-30T15:15:49;10.20;;;6.60;;
3259;SDS011;68938;48.150;14.004;2023-09-30T15:18:16;10.00;;;6.27;;
3259;SDS011;68938;48.150;14.004;2023-09-30T15:20:43;13.50;;;7.50;;
3259;SDS011;68938;48.150;14.004;2023-09-30T15:23:10;9.87;;;6.47;;
3259;SDS011;68938;48.150;14.004;2023-09-30T15:25:40;9.13;;;6.53;;
3259;SDS011;68938;48.150;14.004;2023-09-30T15:28:09;14.87;;;7.63;;
3259;SDS011;68938;48.150;14.004;2023-09-30T15:30:40;9.50;;;6.43;;
3259;SDS011;68938;48.150;14.004;2023-09-30T15:33:07;10.03;;;6.33;;
3259;SDS011;68938;48.150;14.004;2023-09-30T15:35:34;9.93;;;6.37;;
3259;SDS011;68938;48.150;14.004;2023-09-30T15:38:01;13.13;;;6.80;;